Time;durP1;ratioP1;P1;durP2;ratioP2;P2;SDS_P1;SDS_P2;PMS_P1;PMS_P2;Temp;Humidity;BMP_temperature;BMP_pressure;BME280_temperature;BME280_humidity;BME280_pressure;Samples;Min_cycle;Max_cycle;Signal;HPM_P1;HPM_P2
2024/02/14 05:06:34;;;;;;;7.32;4.75;;;3.00;64.50;;;;;;5102742;27;20757;-87
2024/02/14 05:09:00;;;;;;;8.25;4.57;;;3.10;70.00;;;;;;5061362;28;20696;-84
2024/02/14 05:11:26;;;;;;;7.78;5.30;;;3.20;69.70;;;;;;5025550;28;20594;-84
2024/02/14 05:13:52;;;;;;;7.22;5.20;;;3.30;69.20;;;;;;5042212;28;20039;-85
2024/02/14 05:16:19;;;;;;;7.78;5.13;;;3.40;68.20;;;;;;5025453;28;20045;-84
2024/02/14 05:18:46;;;;;;;11.20;5.82;;;3.40;67.20;;;;;;5039935;28;20124;-85
2024/02/14 05:21:12;;;;;;;7.63;5.55;;;3.50;66.30;;;;;;5041087;28;20040;-84
2024/02/14 05:23:38;;;;;;;8.57;5.78;;;3.60;65.60;;;;;;5036509;28;20047;-85
2024/02/14 05:26:23;;;;;;;9.55;5.40;;;3.60;65.60;;;;;;5060659;28;20048;-85
2024/02/14 05:28:49;;;;;;;9.50;5.53;;;3.60;64.40;;;;;;5082660;28;20091;-84
2024/02/14 05:31:16;;;;;;;7.88;5.43;;;3.70;63.80;;;;;;5057831;28;20034;-85
2024/02/14 05:33:43;;;;;;;8.40;4.68;;;3.80;63.40;;;;;;5025412;28;20033;-85
2024/02/14 05:36:10;;;;;;;7.55;5.25;;;3.80;63.00;;;;;;5044061;28;20066;-84
2024/02/14 05:38:36;;;;;;;7.50;4.85;;;3.80;62.80;;;;;;5075144;28;20120;-85
2024/02/14 05:41:02;;;;;;;7.65;5.20;;;3.90;62.40;;;;;;5051994;28;20029;-85
2024/02/14 05:43:28;;;;;;;7.07;4.97;;;3.90;62.10;;;;;;5062671;28;20033;-84
2024/02/14 05:45:55;;;;;;;8.90;5.22;;;3.90;61.90;;;;;;5062478;28;20037;-84
2024/02/14 05:48:21;;;;;;;8.43;4.80;;;3.90;61.50;;;;;;5058359;28;20168;-84
2024/02/14 05:50:47;;;;;;;8.20;4.93;;;3.90;61.30;;;;;;5060796;28;20039;-85
2024/02/14 05:53:13;;;;;;;6.20;4.57;;;4.00;60.90;;;;;;5069466;28;20050;-85
2024/02/14 05:55:39;;;;;;;6.57;4.43;;;4.00;60.80;;;;;;5060888;28;20061;-85
2024/02/14 05:58:05;;;;;;;6.88;5.13;;;4.10;60.50;;;;;;5045604;28;20040;-84
2024/02/14 06:00:31;;;;;;;6.55;4.65;;;4.10;60.40;;;;;;5046674;28;20028;-84
2024/02/14 06:02:57;;;;;;;6.63;4.60;;;4.10;60.30;;;;;;5061395;28;20436;-84
2024/02/14 06:05:23;;;;;;;10.02;5.35;;;4.20;60.20;;;;;;5061003;28;20412;-84
2024/02/14 06:07:50;;;;;;;6.25;4.60;;;4.20;59.90;;;;;;5074283;28;20183;-84
2024/02/14 06:10:17;;;;;;;5.78;4.63;;;4.30;59.70;;;;;;5024263;28;20037;-84
2024/02/14 06:13:02;;;;;;;5.90;4.53;;;4.30;59.50;;;;;;5059126;28;20025;-84
2024/02/14 06:15:28;;;;;;;6.30;4.45;;;4.30;59.20;;;;;;5060559;28;20028;-86
2024/02/14 06:17:54;;;;;;;6.72;4.55;;;4.40;59.00;;;;;;5048556;28;20408;-86
2024/02/14 06:20:20;;;;;;;6.40;4.63;;;4.40;58.80;;;;;;5049051;28;20037;-88
2024/02/14 06:22:46;;;;;;;6.97;4.50;;;4.50;58.50;;;;;;5024633;28;21489;-88
2024/02/14 06:25:12;;;;;;;6.57;4.35;;;4.50;58.60;;;;;;5040086;28;20373;-86
2024/02/14 06:27:51;;;;;;;8.32;4.70;;;4.60;58.20;;;;;;4998734;28;20079;-86
2024/02/14 06:30:17;;;;;;;6.97;4.65;;;4.60;57.80;;;;;;5031938;28;20250;-87
2024/02/14 06:32:43;;;;;;;6.88;4.47;;;4.70;57.70;;;;;;5031424;28;20036;-85
2024/02/14 06:35:09;;;;;;;9.25;4.68;;;4.70;57.60;;;;;;5064093;28;20033;-86
2024/02/14 06:37:35;;;;;;;7.25;4.88;;;4.80;57.70;;;;;;5049207;28;20033;-88
2024/02/14 06:40:01;;;;;;;8.57;4.68;;;4.90;57.50;;;;;;5031070;28;20036;-91
2024/02/14 06:42:27;;;;;;;6.97;4.72;;;4.90;57.40;;;;;;5009319;28;20034;-90
2024/02/14 06:44:53;;;;;;;6.60;4.18;;;5.00;57.50;;;;;;5040138;28;20041;-92
2024/02/14 06:47:19;;;;;;;6.70;4.63;;;5.10;57.40;;;;;;5033707;28;20128;-91
2024/02/14 06:49:45;;;;;;;5.88;4.35;;;5.10;57.50;;;;;;5017550;28;20041;-94
2024/02/14 06:52:12;;;;;;;6.68;4.38;;;5.20;57.60;;;;;;5044909;28;20029;-92
2024/02/14 06:54:38;;;;;;;5.53;4.00;;;5.30;57.40;;;;;;5033982;28;20066;-92
2024/02/14 06:57:04;;;;;;;6.70;4.35;;;5.30;57.40;;;;;;5033959;28;20033;-93
2024/02/14 06:59:30;;;;;;;6.28;4.50;;;5.40;57.30;;;;;;5025977;28;20129;-92
2024/02/14 07:01:56;;;;;;;7.00;4.78;;;5.50;57.40;;;;;;5033011;28;20029;-89
2024/02/14 07:04:25;;;;;;;8.98;5.50;;;5.50;57.10;;;;;;5051420;28;20094;-89
2024/02/14 07:06:54;;;;;;;6.45;4.28;;;5.60;56.90;;;;;;5034294;28;20041;-88
2024/02/14 07:09:21;;;;;;;5.90;4.22;;;5.60;57.20;;;;;;5039080;28;20393;-88
2024/02/14 07:11:47;;;;;;;5.45;3.90;;;5.70;57.30;;;;;;5014392;28;20033;-90
2024/02/14 07:14:13;;;;;;;6.03;4.13;;;5.80;57.30;;;;;;5020306;28;20033;-91
2024/02/14 07:16:39;;;;;;;6.78;4.72;;;5.80;57.20;;;;;;5030658;28;20034;-91
2024/02/14 07:19:06;;;;;;;5.45;4.03;;;5.90;57.50;;;;;;5048572;28;20021;-92
2024/02/14 07:21:33;;;;;;;6.63;4.22;;;5.90;57.50;;;;;;5048976;28;20063;-92
2024/02/14 07:23:59;;;;;;;5.75;4.13;;;6.00;57.50;;;;;;5031977;28;20043;-89
2024/02/14 07:26:25;;;;;;;5.65;3.90;;;6.00;57.90;;;;;;5060283;28;20090;-88
2024/02/14 07:28:51;;;;;;;6.93;4.47;;;6.10;57.70;;;;;;5030791;28;20273;-90
2024/02/14 07:31:17;;;;;;;6.07;3.92;;;6.10;57.40;;;;;;5039801;28;20040;-90
2024/02/14 07:33:44;;;;;;;5.93;3.88;;;6.20;57.50;;;;;;5012612;28;20074;-90
2024/02/14 07:36:10;;;;;;;5.13;3.58;;;6.20;57.50;;;;;;5052558;28;20386;-87
2024/02/14 07:38:36;;;;;;;7.18;4.30;;;6.20;57.70;;;;;;5022820;28;20314;-87
2024/02/14 07:41:03;;;;;;;6.35;3.97;;;6.30;57.60;;;;;;5004540;28;20381;-86
2024/02/14 07:43:34;;;;;;;4.88;3.70;;;6.30;58.10;;;;;;5032057;28;20036;-87
2024/02/14 07:46:00;;;;;;;5.38;4.05;;;6.30;58.00;;;;;;5068775;28;20035;-86
2024/02/14 07:48:27;;;;;;;5.38;3.80;;;6.30;57.70;;;;;;5016859;28;20036;-88
2024/02/14 07:50:53;;;;;;;6.22;4.20;;;6.40;57.50;;;;;;5072119;28;20041;-88
2024/02/14 07:53:19;;;;;;;8.40;4.20;;;6.40;57.10;;;;;;5030499;28;20159;-88
2024/02/14 07:55:45;;;;;;;6.22;3.83;;;6.40;57.00;;;;;;5043319;28;20032;-87
2024/02/14 07:58:12;;;;;;;5.38;3.95;;;6.50;57.40;;;;;;5029962;28;20036;-88
2024/02/14 08:00:38;;;;;;;6.95;4.13;;;6.50;58.00;;;;;;5030784;28;20491;-88
2024/02/14 08:03:05;;;;;;;5.88;4.00;;;6.50;56.90;;;;;;5030283;28;20399;-88
2024/02/14 08:05:32;;;;;;;6.47;4.43;;;6.50;56.70;;;;;;5029225;28;20036;-87
2024/02/14 08:07:58;;;;;;;8.18;5.07;;;6.60;56.10;;;;;;5029809;28;20029;-87
2024/02/14 08:10:24;;;;;;;7.53;4.97;;;6.60;56.30;;;;;;5031202;28;20040;-88
2024/02/14 08:12:50;;;;;;;6.45;4.35;;;6.60;55.90;;;;;;5047867;28;20033;-87
2024/02/14 08:15:16;;;;;;;6.15;4.07;;;6.70;55.80;;;;;;5028702;28;20032;-87
2024/02/14 08:17:42;;;;;;;7.93;5.25;;;6.70;56.00;;;;;;5029216;28;20040;-85
2024/02/14 08:20:09;;;;;;;7.55;4.25;;;6.70;55.50;;;;;;5024471;28;20526;-85
2024/02/14 08:22:37;;;;;;;7.65;4.78;;;6.70;56.10;;;;;;5026624;28;20047;-85
2024/02/14 08:25:04;;;;;;;6.38;4.38;;;6.70;56.00;;;;;;5042608;28;20025;-85
2024/02/14 08:27:31;;;;;;;5.22;3.90;;;6.80;55.70;;;;;;5036623;28;20116;-83
2024/02/14 08:29:57;;;;;;;6.10;4.70;;;6.80;55.20;;;;;;5061887;28;20041;-84
2024/02/14 08:32:23;;;;;;;6.05;4.53;;;6.80;55.10;;;;;;5019647;28;20041;-84
2024/02/14 08:34:52;;;;;;;7.40;4.70;;;6.80;54.90;;;;;;5042049;28;20115;-84
2024/02/14 08:37:18;;;;;;;6.90;4.43;;;6.70;54.50;;;;;;5004174;28;20059;-84
2024/02/14 08:39:44;;;;;;;6.70;4.22;;;6.80;54.50;;;;;;5045452;28;20120;-86
2024/02/14 08:42:10;;;;;;;6.28;4.10;;;6.80;54.40;;;;;;5043581;28;20522;-84
2024/02/14 08:44:37;;;;;;;7.50;4.55;;;6.80;54.00;;;;;;5018488;28;20041;-90
2024/02/14 08:47:04;;;;;;;5.25;3.88;;;6.80;53.90;;;;;;5029072;28;20043;-91
2024/02/14 08:49:30;;;;;;;7.35;4.20;;;6.80;54.10;;;;;;5050907;28;20163;-89
2024/02/14 08:51:57;;;;;;;5.45;3.80;;;6.80;54.00;;;;;;5042649;28;20040;-94
2024/02/14 08:54:23;;;;;;;6.60;4.18;;;6.80;54.10;;;;;;5063380;28;20032;-89
2024/02/14 08:56:49;;;;;;;4.95;3.58;;;6.80;53.80;;;;;;5044230;28;20056;-87
2024/02/14 08:59:15;;;;;;;5.07;3.75;;;6.80;53.50;;;;;;5036746;28;20033;-88
2024/02/14 09:01:45;;;;;;;8.27;4.68;;;6.80;53.60;;;;;;5033725;28;20032;-91
2024/02/14 09:04:11;;;;;;;5.63;4.43;;;6.80;53.60;;;;;;5019314;28;20037;-86
2024/02/14 09:06:39;;;;;;;6.65;3.85;;;6.70;53.50;;;;;;5031123;28;20499;-86
2024/02/14 09:09:05;;;;;;;5.20;3.65;;;6.70;53.60;;;;;;5035830;28;20053;-88
2024/02/14 09:11:32;;;;;;;5.35;4.07;;;6.70;53.90;;;;;;5044087;28;20025;-86
2024/02/14 09:14:04;;;;;;;7.07;4.05;;;6.70;53.80;;;;;;5034831;28;20048;-87
2024/02/14 09:16:31;;;;;;;7.45;4.55;;;6.70;53.90;;;;;;5022855;28;20184;-87
2024/02/14 09:18:58;;;;;;;7.00;4.22;;;6.70;54.00;;;;;;5029553;28;20030;-87
2024/02/14 09:21:24;;;;;;;6.50;4.38;;;6.70;55.00;;;;;;5030091;28;20396;-87
2024/02/14 09:23:50;;;;;;;6.28;4.18;;;6.70;55.00;;;;;;5038237;28;20037;-87
2024/02/14 09:26:16;;;;;;;6.10;4.35;;;6.70;54.40;;;;;;5043383;28;20047;-87
2024/02/14 09:28:43;;;;;;;7.60;4.72;;;6.70;54.50;;;;;;5029980;28;20037;-87
2024/02/14 09:31:12;;;;;;;8.23;4.70;;;6.70;54.50;;;;;;5029568;28;20047;-86
2024/02/14 09:33:39;;;;;;;6.88;4.60;;;6.70;54.50;;;;;;5043544;28;20765;-86
2024/02/14 09:36:06;;;;;;;5.55;3.80;;;6.60;54.60;;;;;;5022457;28;20040;-87
2024/02/14 09:38:32;;;;;;;5.68;4.13;;;6.60;54.70;;;;;;5041801;28;20040;-87
2024/02/14 09:41:24;;;;;;;6.72;3.83;;;6.60;55.00;;;;;;5025615;28;20083;-87
2024/02/14 09:43:50;;;;;;;7.00;4.07;;;6.60;55.00;;;;;;5040908;28;20029;-86
2024/02/14 09:46:16;;;;;;;5.43;3.97;;;6.60;55.00;;;;;;5066355;28;20041;-87
2024/02/14 09:48:45;;;;;;;6.45;4.40;;;6.60;55.10;;;;;;5022484;28;20055;-87
2024/02/14 09:51:38;;;;;;;4.80;3.65;;;6.60;54.90;;;;;;5032623;28;20494;-88
2024/02/14 09:54:04;;;;;;;9.55;4.65;;;6.60;55.20;;;;;;5032166;28;20029;-88
2024/02/14 09:56:32;;;;;;;6.75;4.47;;;6.60;55.40;;;;;;5030166;28;20045;-88
2024/02/14 09:59:00;;;;;;;6.30;4.47;;;6.50;55.30;;;;;;5015034;28;20033;-88
2024/02/14 10:04:11;;;;;;;8.07;4.60;;;6.50;55.10;;;;;;5030733;28;20226;-88
2024/02/14 10:06:56;;;;;;;6.32;4.20;;;6.50;55.00;;;;;;5044865;28;20033;-87
2024/02/14 10:09:23;;;;;;;7.45;4.80;;;6.50;55.00;;;;;;5028650;28;20396;-88
2024/02/14 10:11:49;;;;;;;6.72;4.78;;;6.50;54.80;;;;;;5024427;28;20034;-87
2024/02/14 10:14:16;;;;;;;6.20;4.00;;;6.50;54.80;;;;;;5004525;28;20493;-87
2024/02/14 10:16:42;;;;;;;5.38;3.88;;;6.50;54.50;;;;;;5039468;28;20116;-87
2024/02/14 10:19:18;;;;;;;6.90;4.20;;;6.50;54.60;;;;;;5027999;28;20173;-89
2024/02/14 10:21:58;;;;;;;7.38;4.30;;;6.50;54.70;;;;;;5014592;28;20031;-86
2024/02/14 10:24:29;;;;;;;5.80;3.75;;;6.50;54.60;;;;;;5044046;28;20041;-88
2024/02/14 10:26:57;;;;;;;6.63;3.72;;;6.50;54.50;;;;;;5026320;28;20026;-88
2024/02/14 10:29:24;;;;;;;6.55;3.80;;;6.50;54.50;;;;;;5008679;28;20435;-90
2024/02/14 10:31:51;;;;;;;6.05;4.22;;;6.50;54.50;;;;;;5019094;28;20614;-92
2024/02/14 10:34:20;;;;;;;7.03;4.07;;;6.50;54.60;;;;;;5046936;28;20037;-95
2024/02/14 10:36:47;;;;;;;5.50;3.80;;;6.50;54.80;;;;;;5021902;28;20021;-92
2024/02/14 10:39:15;;;;;;;6.85;4.25;;;6.50;55.00;;;;;;5045713;28;20093;-89
2024/02/14 10:42:00;;;;;;;6.13;4.15;;;6.40;54.70;;;;;;5041233;28;20136;-90
2024/02/14 10:44:27;;;;;;;5.55;3.88;;;6.40;54.90;;;;;;5019191;28;20033;-87
2024/02/14 10:46:55;;;;;;;5.55;4.22;;;6.50;55.00;;;;;;5052060;28;20040;-90
2024/02/14 10:49:24;;;;;;;5.43;3.90;;;6.40;55.00;;;;;;5039197;28;20033;-95
2024/02/14 10:51:54;;;;;;;6.03;4.13;;;6.40;55.20;;;;;;5011942;28;20025;-90
2024/02/14 10:54:20;;;;;;;5.15;3.60;;;6.40;55.10;;;;;;5026643;28;20484;-85
2024/02/14 10:56:52;;;;;;;5.72;4.00;;;6.40;55.10;;;;;;5026494;28;20034;-85
2024/02/14 10:59:21;;;;;;;7.43;3.97;;;6.40;55.40;;;;;;5027250;28;20369;-87
2024/02/14 11:01:48;;;;;;;6.53;4.47;;;6.40;55.50;;;;;;5025980;28;20572;-88
2024/02/14 11:04:16;;;;;;;5.85;4.20;;;6.40;55.20;;;;;;5007591;28;20117;-89
2024/02/14 11:06:54;;;;;;;5.90;4.00;;;6.40;55.10;;;;;;5023980;28;20036;-88
2024/02/14 11:09:20;;;;;;;7.20;4.28;;;6.40;55.50;;;;;;5027218;28;20080;-88
2024/02/14 11:11:47;;;;;;;8.20;4.20;;;6.40;55.10;;;;;;5012252;28;20026;-88
2024/02/14 11:14:18;;;;;;;4.68;3.72;;;6.40;55.30;;;;;;5059538;28;20029;-90
2024/02/14 11:16:48;;;;;;;6.63;4.13;;;6.40;55.30;;;;;;4993764;28;20069;-89
2024/02/14 11:19:17;;;;;;;6.10;4.13;;;6.40;55.50;;;;;;5047701;28;20136;-92
2024/02/14 11:21:46;;;;;;;7.15;4.60;;;6.40;55.40;;;;;;5009894;28;20142;-84
2024/02/14 11:24:16;;;;;;;7.70;4.55;;;6.40;55.60;;;;;;5050368;28;20127;-91
2024/02/14 11:26:54;;;;;;;4.85;3.72;;;6.40;55.70;;;;;;5026632;28;20124;-89
2024/02/14 11:29:20;;;;;;;7.90;3.88;;;6.40;56.20;;;;;;5024943;28;20030;-90
2024/02/14 11:31:50;;;;;;;9.02;3.63;;;6.40;56.40;;;;;;5027872;28;21345;-89
2024/02/14 11:34:36;;;;;;;6.75;4.00;;;6.40;56.40;;;;;;5025848;28;20052;-90
2024/02/14 11:37:02;;;;;;;5.55;3.90;;;6.40;56.10;;;;;;5040950;28;20033;-90
2024/02/14 11:39:28;;;;;;;5.93;3.60;;;6.40;56.00;;;;;;5049769;28;20447;-88
2024/02/14 11:42:14;;;;;;;7.13;3.85;;;6.30;56.10;;;;;;5044192;28;20041;-90
2024/02/14 11:44:42;;;;;;;6.22;4.25;;;6.40;56.20;;;;;;5010315;28;20034;-90
2024/02/14 11:47:10;;;;;;;6.10;3.92;;;6.30;56.00;;;;;;5026741;28;20044;-90
2024/02/14 11:49:39;;;;;;;6.53;3.80;;;6.30;55.90;;;;;;5006762;28;20025;-89
2024/02/14 11:52:05;;;;;;;7.80;3.72;;;6.30;55.60;;;;;;5030059;28;20030;-89
2024/02/14 11:54:31;;;;;;;7.03;4.20;;;6.30;55.60;;;;;;5063252;28;20028;-88
2024/02/14 11:56:57;;;;;;;4.65;3.65;;;6.30;55.70;;;;;;5030179;28;20044;-89
2024/02/14 11:59:23;;;;;;;6.20;3.83;;;6.30;55.50;;;;;;5026570;28;20033;-89
2024/02/14 12:01:51;;;;;;;5.90;3.85;;;6.30;55.50;;;;;;5034497;28;20036;-88
2024/02/14 12:04:36;;;;;;;5.05;3.65;;;6.30;55.40;;;;;;5028876;28;20139;-88
2024/02/14 12:07:03;;;;;;;5.45;4.10;;;6.30;55.40;;;;;;5033800;28;20041;-88
2024/02/14 12:09:29;;;;;;;5.93;3.65;;;6.20;55.50;;;;;;5034363;28;20076;-87
2024/02/14 12:11:55;;;;;;;8.15;3.88;;;6.20;55.50;;;;;;5029432;28;20037;-90
2024/02/14 12:14:24;;;;;;;6.35;4.13;;;6.30;55.70;;;;;;5002060;28;20496;-90
2024/02/14 12:16:51;;;;;;;7.90;4.32;;;6.30;55.70;;;;;;5042488;28;20444;-90
2024/02/14 12:19:20;;;;;;;5.28;3.58;;;6.30;55.70;;;;;;5026194;28;20033;-89
2024/02/14 12:21:48;;;;;;;5.03;3.90;;;6.20;55.90;;;;;;5033256;28;20116;-90
2024/02/14 12:24:14;;;;;;;4.90;3.38;;;6.20;55.80;;;;;;5046941;28;20052;-90
2024/02/14 12:26:41;;;;;;;6.88;4.50;;;6.20;55.60;;;;;;5029560;28;20399;-91
2024/02/14 12:29:10;;;;;;;6.63;3.88;;;6.20;55.60;;;;;;5042412;28;20068;-88
2024/02/14 12:31:37;;;;;;;5.85;3.60;;;6.20;55.80;;;;;;5022463;28;20034;-88
2024/02/14 12:34:04;;;;;;;6.60;4.32;;;6.20;56.00;;;;;;5025118;28;20033;-90
2024/02/14 12:36:34;;;;;;;7.07;4.28;;;6.20;55.50;;;;;;5057878;28;20022;-88
2024/02/14 12:39:04;;;;;;;6.20;4.05;;;6.20;55.50;;;;;;5007197;28;20130;-89
2024/02/14 12:41:31;;;;;;;5.50;3.92;;;6.20;55.60;;;;;;5050415;28;20029;-89
2024/02/14 12:43:58;;;;;;;7.88;3.67;;;6.10;55.70;;;;;;5058864;28;20037;-90
2024/02/14 12:46:24;;;;;;;5.68;3.88;;;6.20;55.70;;;;;;5024823;28;20048;-88
2024/02/14 12:48:50;;;;;;;6.13;4.05;;;6.10;55.60;;;;;;5040566;28;20048;-89
2024/02/14 12:51:17;;;;;;;6.55;4.40;;;6.10;55.50;;;;;;5042835;28;20518;-88
2024/02/14 12:53:43;;;;;;;7.10;3.92;;;6.10;55.50;;;;;;5063349;28;20587;-91
2024/02/14 12:56:10;;;;;;;4.95;3.58;;;6.10;55.70;;;;;;5030146;28;21040;-88
2024/02/14 12:58:36;;;;;;;5.32;3.83;;;6.10;55.50;;;;;;5048809;28;20075;-89
2024/02/14 13:01:05;;;;;;;4.28;3.47;;;6.10;55.70;;;;;;5036776;28;20044;-90
2024/02/14 13:03:33;;;;;;;5.50;3.90;;;6.10;56.00;;;;;;5038271;28;20021;-89
2024/02/14 13:06:00;;;;;;;5.82;3.75;;;6.10;56.00;;;;;;5038931;28;20392;-91
2024/02/14 13:08:26;;;;;;;5.10;4.03;;;6.10;55.40;;;;;;5029241;28;20398;-91
2024/02/14 13:10:53;;;;;;;5.25;3.85;;;6.00;55.60;;;;;;5029126;28;20242;-88
2024/02/14 13:13:19;;;;;;;4.90;3.90;;;6.10;55.50;;;;;;4992516;28;20079;-90
2024/02/14 13:15:45;;;;;;;5.85;3.90;;;6.00;55.50;;;;;;5026094;28;20040;-90
2024/02/14 13:18:11;;;;;;;6.43;3.50;;;6.00;55.60;;;;;;5025308;28;20034;-90
2024/02/14 13:20:38;;;;;;;5.75;4.07;;;6.00;55.90;;;;;;5003726;28;20091;-90
2024/02/14 13:23:08;;;;;;;6.20;3.78;;;6.00;55.90;;;;;;5026006;28;20037;-89
2024/02/14 13:25:34;;;;;;;6.53;3.97;;;6.00;55.80;;;;;;5023986;28;20037;-90
2024/02/14 13:28:01;;;;;;;5.55;3.88;;;6.00;55.80;;;;;;5026265;28;20037;-91
2024/02/14 13:30:27;;;;;;;6.95;4.10;;;6.00;55.60;;;;;;5029492;28;20489;-90
2024/02/14 13:32:53;;;;;;;5.47;3.88;;;6.00;55.50;;;;;;5057853;28;20044;-89
2024/02/14 13:35:19;;;;;;;6.20;3.97;;;6.00;55.80;;;;;;5033313;28;20112;-91
2024/02/14 13:37:46;;;;;;;7.32;4.32;;;6.00;55.90;;;;;;5033924;28;20047;-89
2024/02/14 13:40:12;;;;;;;6.45;4.28;;;5.90;55.30;;;;;;5033471;28;20112;-87
2024/02/14 13:42:38;;;;;;;7.22;4.65;;;5.90;55.00;;;;;;5032696;28;20025;-87
2024/02/14 13:45:09;;;;;;;6.15;3.85;;;5.90;55.00;;;;;;5061219;28;20441;-79
2024/02/14 13:47:38;;;;;;;6.13;3.67;;;6.00;55.90;;;;;;5043467;28;20511;-84
2024/02/14 13:50:07;;;;;;;8.73;3.45;;;6.10;58.90;;;;;;5047627;28;20029;-83
2024/02/14 13:52:34;;;;;;;6.13;3.55;;;6.10;60.20;;;;;;5059645;28;20033;-85
2024/02/14 13:55:05;;;;;;;6.93;4.18;;;6.10;58.80;;;;;;5030129;28;20061;-83
2024/02/14 13:57:36;;;;;;;6.57;4.38;;;6.10;57.80;;;;;;5048643;28;20082;-83
2024/02/14 14:00:03;;;;;;;7.50;4.45;;;6.10;56.90;;;;;;5064021;28;20033;-84
2024/02/14 14:02:41;;;;;;;5.85;4.38;;;6.00;56.50;;;;;;5016365;28;20053;-81
2024/02/14 14:05:11;;;;;;;7.95;4.65;;;6.00;56.20;;;;;;5027898;28;20036;-81
2024/02/14 14:07:41;;;;;;;7.88;4.72;;;6.00;55.80;;;;;;5058827;28;20044;-81
2024/02/14 14:10:09;;;;;;;8.20;4.55;;;6.00;55.40;;;;;;5012207;28;20056;-82
2024/02/14 14:12:35;;;;;;;6.10;4.00;;;6.00;55.40;;;;;;5015530;28;20033;-81
2024/02/14 14:15:02;;;;;;;7.85;4.90;;;6.00;55.40;;;;;;5033871;28;20038;-81
2024/02/14 14:17:30;;;;;;;6.07;4.32;;;6.00;55.50;;;;;;5024750;28;20048;-81
2024/02/14 14:19:56;;;;;;;9.70;5.15;;;6.00;55.40;;;;;;5014325;28;20045;-84
2024/02/14 14:22:22;;;;;;;7.25;4.35;;;5.90;55.30;;;;;;5043438;28;21193;-81
2024/02/14 14:24:48;;;;;;;7.72;4.60;;;5.90;55.20;;;;;;5025421;28;20085;-80
2024/02/14 14:27:14;;;;;;;7.95;4.85;;;5.80;55.00;;;;;;5028689;28;20124;-82
2024/02/14 14:29:41;;;;;;;7.18;4.75;;;5.80;55.10;;;;;;5032247;28;20029;-82
2024/02/14 14:32:08;;;;;;;6.00;4.30;;;5.90;55.20;;;;;;5038273;28;20037;-81
2024/02/14 14:34:34;;;;;;;6.45;4.60;;;5.80;55.10;;;;;;5047060;28;20645;-81
2024/02/14 14:37:01;;;;;;;6.35;4.18;;;5.80;55.10;;;;;;5029947;28;20507;-81
2024/02/14 14:39:27;;;;;;;6.63;4.47;;;5.80;55.00;;;;;;5064115;28;20396;-81
2024/02/14 14:41:56;;;;;;;8.52;4.88;;;5.70;55.00;;;;;;5029288;28;20443;-83
2024/02/14 14:44:22;;;;;;;7.60;4.75;;;5.70;55.10;;;;;;5059493;28;20048;-82
2024/02/14 14:46:49;;;;;;;6.05;4.30;;;5.70;55.10;;;;;;5010762;28;20296;-83
2024/02/14 14:49:34;;;;;;;5.88;4.40;;;5.70;55.10;;;;;;5063878;28;20048;-81
2024/02/14 14:52:04;;;;;;;7.35;4.63;;;5.70;55.20;;;;;;5047646;28;20037;-83
2024/02/14 14:54:30;;;;;;;7.80;4.70;;;5.60;55.10;;;;;;5048164;28;20483;-84
2024/02/14 14:56:56;;;;;;;6.32;4.18;;;5.60;55.50;;;;;;5026738;28;20033;-83
2024/02/14 14:59:22;;;;;;;7.13;4.55;;;5.60;55.60;;;;;;5040546;28;20115;-84
2024/02/14 15:01:49;;;;;;;7.90;4.78;;;5.60;55.70;;;;;;5047190;28;20138;-81
2024/02/14 15:04:16;;;;;;;7.38;4.93;;;5.60;55.50;;;;;;5067922;28;20037;-83
2024/02/14 15:06:43;;;;;;;5.82;4.32;;;5.60;55.80;;;;;;5025473;28;20030;-84
2024/02/14 15:09:09;;;;;;;7.80;4.63;;;5.60;55.90;;;;;;5046720;28;20060;-83
2024/02/14 15:11:35;;;;;;;6.57;3.88;;;5.60;55.80;;;;;;5047436;28;20033;-83
2024/02/14 15:14:01;;;;;;;8.48;4.60;;;5.50;55.70;;;;;;5046207;28;20491;-84
2024/02/14 15:16:28;;;;;;;7.20;4.60;;;5.50;55.60;;;;;;5055045;28;20401;-83
2024/02/14 15:18:54;;;;;;;5.90;4.40;;;5.50;55.70;;;;;;5011169;28;20764;-84
2024/02/14 15:21:20;;;;;;;8.25;4.32;;;5.50;55.80;;;;;;5015937;28;20479;-90
2024/02/14 15:23:46;;;;;;;6.20;4.38;;;5.50;56.10;;;;;;5035740;28;20063;-88
2024/02/14 15:26:15;;;;;;;6.72;4.63;;;5.50;56.50;;;;;;5023955;28;20045;-94
2024/02/14 15:28:44;;;;;;;6.32;4.10;;;5.50;56.50;;;;;;5047250;28;20037;-88
2024/02/14 15:34:03;;;;;;;6.55;4.78;;;5.50;56.50;;;;;;5066499;28;20376;-89
2024/02/14 15:36:29;;;;;;;7.63;4.40;;;5.40;56.50;;;;;;5027725;28;20033;-86
2024/02/14 15:38:55;;;;;;;5.10;3.97;;;5.40;56.50;;;;;;5026934;28;20424;-89
2024/02/14 15:41:21;;;;;;;7.95;4.60;;;5.40;56.30;;;;;;5041271;28;20067;-89
2024/02/14 15:43:47;;;;;;;6.47;4.22;;;5.40;56.40;;;;;;5026893;28;20038;-89
2024/02/14 15:46:17;;;;;;;6.20;4.25;;;5.40;56.50;;;;;;5035291;28;20045;-95
2024/02/14 15:48:44;;;;;;;7.15;4.80;;;5.40;56.30;;;;;;5043616;28;20029;-82
2024/02/14 15:51:10;;;;;;;6.63;4.50;;;5.40;56.20;;;;;;5045171;28;20044;-85
2024/02/14 15:53:37;;;;;;;9.23;4.03;;;5.50;58.70;;;;;;5026687;28;20469;-85
2024/02/14 15:56:04;;;;;;;5.60;4.00;;;5.50;59.50;;;;;;5048316;28;20341;-86
2024/02/14 15:58:30;;;;;;;6.97;4.60;;;5.50;58.20;;;;;;5029639;28;20098;-88
2024/02/14 16:00:57;;;;;;;6.85;4.68;;;5.40;57.60;;;;;;5029812;28;20223;-92
2024/02/14 16:03:23;;;;;;;9.10;5.57;;;5.40;56.60;;;;;;5052439;28;20052;-87
2024/02/14 16:05:49;;;;;;;9.68;5.97;;;5.30;55.70;;;;;;5043194;28;20037;-89
2024/02/14 16:08:16;;;;;;;10.60;5.38;;;5.30;55.30;;;;;;5043407;28;20043;-89
2024/02/14 16:10:47;;;;;;;10.55;5.25;;;5.30;54.20;;;;;;5029836;28;20038;-93
2024/02/14 16:13:14;;;;;;;6.75;4.90;;;5.30;54.80;;;;;;5035780;28;20057;-87
2024/02/14 16:15:40;;;;;;;8.15;5.43;;;5.30;54.90;;;;;;5056616;28;20044;-90
2024/02/14 16:18:06;;;;;;;8.02;4.80;;;5.20;54.80;;;;;;5028865;28;20045;-86
2024/02/14 16:20:32;;;;;;;8.10;5.47;;;5.20;54.50;;;;;;5024592;28;20044;-87
2024/02/14 16:22:58;;;;;;;9.07;4.93;;;5.10;54.00;;;;;;5026911;28;20095;-85
2024/02/14 16:25:28;;;;;;;9.73;6.55;;;5.10;53.40;;;;;;5037434;28;20052;-89
2024/02/14 16:27:54;;;;;;;8.70;4.97;;;5.10;53.40;;;;;;5052390;28;20036;-87
2024/02/14 16:30:20;;;;;;;8.60;5.35;;;5.10;53.90;;;;;;5054983;28;20040;-92
2024/02/14 16:32:47;;;;;;;10.23;5.65;;;5.10;53.80;;;;;;5025090;28;20033;-93
2024/02/14 16:35:13;;;;;;;8.80;5.07;;;5.00;52.60;;;;;;5020998;28;20033;-91
2024/02/14 16:37:39;;;;;;;9.45;5.45;;;4.90;53.30;;;;;;5034514;28;20097;-88
2024/02/14 16:40:07;;;;;;;11.13;5.53;;;5.00;53.10;;;;;;5048781;28;20787;-88
2024/02/14 16:42:33;;;;;;;9.18;5.63;;;4.90;52.80;;;;;;5034980;28;20029;-86
2024/02/14 16:45:17;;;;;;;9.45;5.50;;;4.90;52.30;;;;;;5030129;28;20029;-86
2024/02/14 16:48:03;;;;;;;7.57;5.18;;;4.80;51.90;;;;;;5012712;28;20064;-86
2024/02/14 16:50:30;;;;;;;7.60;5.32;;;4.80;52.20;;;;;;5040519;28;20088;-86
2024/02/14 16:52:57;;;;;;;8.85;5.78;;;4.80;52.00;;;;;;5036059;28;20063;-87
2024/02/14 16:55:23;;;;;;;7.95;5.80;;;4.70;51.60;;;;;;5022944;28;21846;-93
2024/02/14 16:57:49;;;;;;;10.10;6.20;;;4.70;52.10;;;;;;5027116;28;20128;-79
2024/02/14 17:00:15;;;;;;;8.70;5.03;;;4.70;53.00;;;;;;5024743;28;20060;-87
2024/02/14 17:02:44;;;;;;;8.77;5.10;;;4.70;52.60;;;;;;5026739;28;20037;-80
2024/02/14 17:05:11;;;;;;;7.32;4.60;;;4.70;56.30;;;;;;5022367;28;20103;-82
2024/02/14 17:07:37;;;;;;;7.65;4.80;;;4.80;60.00;;;;;;5045578;28;20033;-79
2024/02/14 17:10:04;;;;;;;8.40;5.35;;;4.90;61.50;;;;;;5045051;28;20118;-81
2024/02/14 17:12:31;;;;;;;8.48;5.00;;;4.90;61.30;;;;;;5028482;28;20033;-80
2024/02/14 17:14:57;;;;;;;7.32;4.70;;;4.90;60.70;;;;;;5040503;28;20043;-83
2024/02/14 17:17:24;;;;;;;8.88;5.28;;;4.90;60.20;;;;;;5034430;28;20037;-82
2024/02/14 17:19:50;;;;;;;7.82;4.93;;;4.90;59.80;;;;;;5035515;28;20741;-79
2024/02/14 17:22:16;;;;;;;8.02;5.07;;;4.90;59.60;;;;;;5044811;28;20090;-81
2024/02/14 17:24:44;;;;;;;7.55;5.18;;;4.90;59.80;;;;;;5044636;28;20454;-81
2024/02/14 17:27:10;;;;;;;7.40;4.70;;;4.90;59.60;;;;;;5049345;28;20033;-77
2024/02/14 17:29:36;;;;;;;7.40;5.03;;;4.90;59.50;;;;;;5006294;28;20038;-79
2024/02/14 17:32:02;;;;;;;8.02;4.80;;;4.90;60.30;;;;;;5023861;28;20038;-79
2024/02/14 17:34:33;;;;;;;7.00;4.53;;;4.90;61.10;;;;;;5029385;28;20420;-78
2024/02/14 17:37:00;;;;;;;6.72;4.80;;;4.90;62.00;;;;;;5042866;28;20025;-77
2024/02/14 17:39:26;;;;;;;7.00;5.13;;;4.90;62.70;;;;;;5043304;28;20390;-80
2024/02/14 17:41:52;;;;;;;6.93;4.57;;;4.90;63.10;;;;;;5063392;28;20029;-79
2024/02/14 17:44:18;;;;;;;8.60;4.75;;;4.90;63.30;;;;;;5045153;28;20637;-79
2024/02/14 17:46:45;;;;;;;8.80;5.10;;;4.90;63.60;;;;;;5035595;28;20038;-80
2024/02/14 17:49:13;;;;;;;8.07;4.25;;;4.90;63.70;;;;;;5023526;28;20107;-79
2024/02/14 17:51:42;;;;;;;8.07;4.50;;;5.00;64.20;;;;;;5060508;28;20426;-80
2024/02/14 17:54:08;;;;;;;10.50;4.50;;;5.00;64.50;;;;;;5042688;28;20040;-79
2024/02/14 17:56:34;;;;;;;8.63;4.32;;;5.00;64.70;;;;;;5055357;28;20047;-81
2024/02/14 17:59:01;;;;;;;6.05;4.15;;;5.00;64.70;;;;;;5034022;28;20562;-79
2024/02/14 18:01:27;;;;;;;8.43;4.35;;;5.00;64.90;;;;;;5041934;28;20033;-77
2024/02/14 18:03:54;;;;;;;7.35;4.85;;;5.00;65.00;;;;;;5041607;28;20399;-79
2024/02/14 18:06:20;;;;;;;13.15;4.32;;;5.00;65.00;;;;;;5025936;28;20519;-79
2024/02/14 18:08:46;;;;;;;7.97;4.43;;;5.00;65.10;;;;;;5026940;28;20094;-79
2024/02/14 18:11:12;;;;;;;6.65;4.55;;;5.00;65.20;;;;;;5042738;28;20387;-78